createdAt,value
2023-04-20T00:01:16.013Z,4.18
2023-04-20T00:06:18.040Z,3.53
2023-04-20T00:11:19.580Z,3.60
2023-04-20T00:16:21.248Z,3.70
2023-04-20T00:21:24.257Z,4.00
2023-04-20T00:26:26.113Z,3.63
2023-04-20T00:31:28.673Z,3.97
2023-04-20T00:36:30.425Z,4.25
2023-04-20T00:41:33.438Z,3.95
2023-04-20T00:46:35.333Z,3.95
2023-04-20T00:51:39.810Z,4.03
2023-04-20T00:56:42.226Z,3.95
2023-04-20T01:01:43.786Z,4.00
2023-04-20T01:06:45.464Z,3.88
2023-04-20T01:11:47.045Z,4.13
2023-04-20T01:16:52.037Z,4.03
2023-04-20T01:21:53.592Z,4.15
2023-04-20T01:26:55.197Z,4.25
2023-04-20T01:31:56.769Z,4.07
2023-04-20T01:36:59.940Z,4.22
2023-04-20T01:42:01.984Z,3.47
2023-04-20T01:47:03.770Z,3.85
2023-04-20T01:52:05.585Z,4.30
2023-04-20T01:57:07.250Z,3.58
2023-04-20T02:02:08.989Z,3.97
2023-04-20T02:07:10.561Z,4.00
2023-04-20T02:12:13.556Z,4.20
2023-04-20T02:17:15.318Z,4.07
2023-04-20T02:22:16.942Z,3.67
2023-04-20T02:27:18.481Z,3.95
2023-04-20T02:32:20.072Z,4.05
2023-04-20T02:37:24.210Z,4.47
2023-04-20T02:42:25.802Z,5.07
2023-04-20T02:47:28.736Z,4.18
2023-04-20T02:52:30.597Z,4.68
2023-04-20T02:57:34.894Z,4.72
2023-04-20T03:02:37.548Z,4.75
2023-04-20T03:07:39.639Z,4.35
2023-04-20T03:12:42.589Z,4.53
2023-04-20T03:18:03.915Z,4.00
2023-04-20T03:23:06.148Z,4.75
2023-04-20T03:28:08.171Z,4.47
2023-04-20T03:33:11.878Z,4.70
2023-04-20T03:38:13.571Z,5.10
2023-04-20T03:43:15.079Z,5.72
2023-04-20T03:48:18.226Z,4.45
2023-04-20T03:53:19.761Z,4.68
2023-04-20T03:58:21.813Z,4.95
2023-04-20T04:03:41.637Z,4.85
2023-04-20T04:08:45.159Z,4.82
2023-04-20T04:13:46.760Z,5.15
2023-04-20T04:18:48.535Z,5.00
2023-04-20T04:23:50.904Z,5.05
2023-04-20T04:29:04.536Z,6.25
2023-04-20T04:34:07.250Z,4.78
2023-04-20T04:39:15.355Z,5.97
2023-04-20T04:44:26.088Z,6.72
2023-04-20T04:49:29.312Z,6.68
2023-04-20T04:54:30.997Z,7.97
2023-04-20T04:59:32.620Z,6.88
2023-04-20T05:04:34.261Z,6.80
2023-04-20T05:09:36.898Z,5.68
2023-04-20T05:14:38.691Z,5.97
2023-04-20T05:19:40.171Z,5.10
2023-04-20T05:24:42.545Z,5.63
2023-04-20T05:29:44.107Z,5.13
2023-04-20T05:34:46.107Z,4.88
2023-04-20T05:39:47.728Z,4.80
2023-04-20T05:44:49.313Z,5.07
2023-04-20T05:49:51.192Z,4.57
2023-04-20T05:54:52.852Z,4.85
2023-04-20T05:59:56.035Z,4.70
2023-04-20T06:05:03.444Z,4.82
2023-04-20T06:10:06.481Z,4.70
2023-04-20T06:15:10.730Z,4.90
2023-04-20T06:20:15.778Z,5.47
2023-04-20T06:25:17.371Z,5.38
2023-04-20T06:30:18.876Z,5.47
2023-04-20T06:35:20.541Z,5.70
2023-04-20T06:40:27.945Z,5.90
2023-04-20T06:45:29.775Z,5.60
2023-04-20T06:50:32.183Z,5.43
2023-04-20T06:55:39.155Z,5.22
2023-04-20T07:00:40.715Z,5.38
2023-04-20T07:05:42.226Z,5.88
2023-04-20T07:10:43.797Z,6.00
2023-04-20T07:15:48.022Z,6.25
2023-04-20T07:20:49.552Z,5.95
2023-04-20T07:25:52.173Z,6.00
2023-04-20T07:30:53.706Z,5.90
2023-04-20T07:35:55.212Z,5.38
2023-04-20T07:40:56.766Z,5.70
2023-04-20T07:45:58.364Z,5.75
2023-04-20T07:50:59.919Z,5.60
2023-04-20T07:56:01.453Z,6.53
2023-04-20T08:01:03.008Z,5.75
2023-04-20T08:06:04.634Z,5.55
2023-04-20T08:11:08.096Z,6.43
2023-04-20T08:16:09.838Z,5.35
2023-04-20T08:21:11.610Z,6.35
2023-04-20T08:26:16.435Z,5.88
2023-04-20T08:31:18.032Z,6.03
2023-04-20T08:36:19.821Z,5.60
2023-04-20T08:41:27.207Z,5.93
2023-04-20T08:46:28.939Z,6.20
2023-04-20T08:51:32.692Z,5.65
2023-04-20T08:56:39.628Z,5.93
2023-04-20T09:01:42.555Z,5.90
2023-04-20T09:06:45.932Z,5.60
2023-04-20T09:11:48.112Z,5.03
2023-04-20T09:17:02.089Z,5.70
2023-04-20T09:22:05.200Z,6.05
2023-04-20T09:27:17.870Z,6.53
2023-04-20T09:32:26.651Z,6.70
2023-04-20T09:37:28.263Z,5.97
2023-04-20T09:42:32.742Z,5.57
2023-04-20T09:47:36.812Z,6.00
2023-04-20T09:52:38.880Z,5.57
2023-04-20T09:57:41.084Z,6.50
2023-04-20T10:02:47.187Z,7.03
2023-04-20T10:08:00.121Z,7.75
2023-04-20T10:13:02.173Z,6.72
2023-04-20T10:18:17.576Z,7.00
2023-04-20T10:23:20.095Z,6.50
2023-04-20T10:28:22.008Z,6.97
2023-04-20T10:33:23.505Z,6.40
2023-04-20T10:38:35.363Z,6.10
2023-04-20T10:43:42.069Z,6.35
2023-04-20T10:48:57.881Z,6.50
2023-04-20T10:54:00.080Z,6.28
2023-04-20T10:59:09.403Z,6.32
2023-04-20T11:04:16.968Z,5.97
2023-04-20T11:09:22.856Z,6.67
2023-04-20T11:14:24.387Z,5.88
2023-04-20T11:19:34.092Z,6.55
2023-04-20T11:24:36.096Z,5.82
2023-04-20T11:29:39.501Z,4.25
2023-04-20T11:34:41.310Z,5.18
2023-04-20T11:39:43.018Z,6.55
2023-04-20T11:44:44.492Z,5.75
2023-04-20T11:49:46.097Z,5.80
2023-04-20T11:54:47.677Z,5.10
2023-04-20T11:59:49.362Z,6.38
2023-04-20T12:04:50.967Z,6.03
2023-04-20T12:09:52.605Z,5.57
2023-04-20T12:14:57.340Z,5.70
2023-04-20T12:20:39.194Z,6.22
2023-04-20T12:25:41.098Z,6.45
2023-04-20T12:30:42.733Z,6.28
2023-04-20T12:35:45.274Z,5.95
2023-04-20T12:40:46.804Z,6.38
2023-04-20T12:45:48.558Z,6.53
2023-04-20T12:50:51.104Z,6.03
2023-04-20T12:56:00.458Z,6.97
2023-04-20T13:01:03.665Z,7.15
2023-04-20T13:06:05.881Z,6.32
2023-04-20T13:11:07.492Z,6.30
2023-04-20T13:16:09.142Z,4.95
2023-04-20T13:21:15.407Z,5.68
2023-04-20T13:26:16.950Z,4.60
2023-04-20T13:31:18.503Z,5.40
2023-04-20T13:36:21.607Z,5.95
2023-04-20T13:41:25.787Z,5.43
2023-04-20T13:46:28.323Z,5.90
2023-04-20T13:51:29.969Z,5.32
2023-04-20T13:56:34.340Z,5.75
2023-04-20T14:01:38.928Z,4.95
2023-04-20T14:06:40.480Z,5.60
2023-04-20T14:11:46.212Z,6.00
2023-04-20T14:16:48.924Z,6.30
2023-04-20T14:21:51.144Z,6.15
2023-04-20T14:26:52.770Z,6.63
2023-04-20T14:31:54.385Z,6.97
2023-04-20T14:36:56.067Z,6.82
2023-04-20T14:41:57.654Z,6.65
2023-04-20T14:46:59.237Z,6.70
2023-04-20T14:52:00.834Z,6.75
2023-04-20T14:57:03.741Z,6.53
2023-04-20T15:02:05.898Z,7.68
2023-04-20T15:07:07.625Z,6.75
2023-04-20T15:12:09.167Z,6.47
2023-04-20T15:17:11.663Z,6.63
2023-04-20T15:22:13.651Z,7.18
2023-04-20T15:27:17.069Z,7.40
2023-04-20T15:32:18.736Z,6.28
2023-04-20T15:37:20.457Z,6.53
2023-04-20T15:42:22.379Z,7.20
2023-04-20T15:47:23.955Z,7.00
2023-04-20T15:52:25.644Z,6.75
2023-04-20T15:57:29.355Z,7.80
2023-04-20T16:02:31.251Z,7.28
2023-04-20T16:07:33.504Z,8.02
2023-04-20T16:12:35.001Z,7.97
2023-04-20T16:17:36.544Z,7.85
2023-04-20T16:22:38.399Z,8.80
2023-04-20T16:27:45.457Z,9.02
2023-04-20T16:32:47.057Z,9.20
2023-04-20T16:37:48.641Z,8.82
2023-04-20T16:42:50.163Z,9.18
2023-04-20T16:47:51.730Z,9.95
2023-04-20T16:52:53.465Z,12.23
2023-04-20T16:58:00.281Z,11.95
2023-04-20T17:03:06.737Z,10.70
2023-04-20T17:08:08.673Z,11.25
2023-04-20T17:13:10.429Z,10.32
2023-04-20T17:18:21.843Z,9.23
2023-04-20T17:23:34.058Z,10.52
2023-04-20T17:28:37.970Z,9.57
2023-04-20T17:33:39.628Z,10.90
2023-04-20T17:38:45.647Z,10.23
2023-04-20T17:43:47.246Z,9.90
2023-04-20T17:48:51.533Z,10.80
2023-04-20T17:53:57.537Z,10.40
2023-04-20T17:58:59.080Z,10.93
2023-04-20T18:04:27.853Z,12.25
2023-04-20T18:09:29.519Z,11.90
2023-04-20T18:14:31.053Z,12.00
2023-04-20T18:19:32.806Z,12.10
2023-04-20T18:24:34.462Z,11.52
2023-04-20T18:29:35.995Z,11.75
2023-04-20T18:34:37.636Z,12.70
2023-04-20T18:39:39.480Z,10.73
2023-04-20T18:44:41.150Z,12.88
2023-04-20T18:49:42.862Z,13.43
2023-04-20T18:54:44.461Z,13.90
2023-04-20T18:59:45.963Z,12.75
2023-04-20T19:04:50.830Z,13.93
2023-04-20T19:09:57.590Z,13.77
2023-04-20T19:15:04.526Z,13.15
2023-04-20T19:20:10.218Z,13.25
2023-04-20T19:25:11.864Z,14.60
2023-04-20T19:30:13.486Z,13.93
2023-04-20T19:35:15.077Z,15.15
2023-04-20T19:40:24.045Z,15.15
2023-04-20T19:45:25.661Z,14.37
2023-04-20T19:50:27.700Z,14.65
2023-04-20T19:55:39.733Z,14.02
2023-04-20T20:00:41.377Z,15.45
2023-04-20T20:05:43.604Z,14.68
2023-04-20T20:10:45.241Z,14.35
2023-04-20T20:15:46.770Z,14.52
2023-04-20T20:20:51.693Z,15.45
2023-04-20T20:26:03.654Z,14.68
2023-04-20T20:31:05.446Z,13.23
2023-04-20T20:36:07.265Z,14.52
2023-04-20T20:41:16.606Z,14.55
2023-04-20T20:46:27.929Z,15.80
2023-04-20T20:51:29.771Z,16.58
2023-04-20T20:56:33.753Z,14.90
2023-04-20T21:01:35.349Z,16.23
2023-04-20T21:06:36.893Z,16.40
2023-04-20T21:11:38.496Z,15.90
2023-04-20T21:16:40.626Z,16.73
2023-04-20T21:21:45.690Z,16.08
2023-04-20T21:26:47.246Z,16.48
2023-04-20T21:31:52.127Z,17.63
2023-04-20T21:36:53.790Z,17.58
2023-04-20T21:41:55.700Z,17.92
2023-04-20T21:46:57.301Z,17.50
2023-04-20T21:51:58.839Z,17.10
2023-04-20T21:57:10.094Z,16.77
2023-04-20T22:02:11.720Z,19.75
2023-04-20T22:07:14.600Z,17.55
2023-04-20T22:12:32.323Z,16.73
2023-04-20T22:17:46.324Z,16.40
2023-04-20T22:22:58.150Z,16.90
2023-04-20T22:27:59.675Z,17.90
2023-04-20T22:33:09.870Z,16.00
2023-04-20T22:38:11.486Z,15.57
2023-04-20T22:43:21.785Z,16.35
2023-04-20T22:48:28.441Z,14.40
2023-04-20T22:53:33.977Z,15.05
2023-04-20T22:58:35.884Z,14.73
2023-04-20T23:03:37.840Z,14.70
2023-04-20T23:08:39.820Z,13.20
2023-04-20T23:14:03.994Z,13.35
2023-04-20T23:19:05.637Z,13.88
2023-04-20T23:24:15.775Z,12.93
2023-04-20T23:29:17.475Z,14.45
2023-04-20T23:34:19.256Z,13.70
2023-04-20T23:39:21.858Z,13.95
2023-04-20T23:44:23.440Z,13.85
2023-04-20T23:49:24.951Z,13.30
2023-04-20T23:54:26.857Z,14.10
2023-04-20T23:59:31.212Z,12.98
